Time;durP1;ratioP1;P1;durP2;ratioP2;P2;SDS_P1;SDS_P2;PMS_P1;PMS_P2;Temp;Humidity;BMP_temperature;BMP_pressure;BME280_temperature;BME280_humidity;BME280_pressure;Samples;Min_cycle;Max_cycle;Signal;HPM_P1;HPM_P2
2022/12/05 00:02:13;;;;;;;32.90;18.00;;;;;;;2.84;100.00;98996.56;5076212;28;20626;-79
2022/12/05 00:04:42;;;;;;;32.67;18.60;;;;;;;2.90;100.00;98989.41;5112614;28;20209;-79
2022/12/05 00:07:12;;;;;;;34.23;17.97;;;;;;;2.78;100.00;98993.31;5112329;28;20698;-79
2022/12/05 00:09:41;;;;;;;30.23;17.80;;;;;;;2.79;100.00;98993.25;5106497;28;20228;-78
2022/12/05 00:12:09;;;;;;;30.07;18.10;;;;;;;2.85;100.00;98994.78;5110981;28;20207;-79
2022/12/05 00:14:39;;;;;;;30.03;17.73;;;;;;;2.78;100.00;98996.75;5112362;28;20197;-79
2022/12/05 00:17:07;;;;;;;29.80;17.77;;;;;;;2.85;100.00;98993.03;5077464;28;20199;-79
2022/12/05 00:19:36;;;;;;;30.50;18.40;;;;;;;2.83;100.00;98997.47;5112595;28;20191;-79
2022/12/05 00:22:05;;;;;;;31.93;18.17;;;;;;;2.80;100.00;98994.13;5109888;28;20355;-79
2022/12/05 00:24:34;;;;;;;30.20;17.87;;;;;;;2.76;100.00;98993.34;5111627;28;20187;-78
2022/12/05 00:27:05;;;;;;;30.40;17.27;;;;;;;2.77;100.00;98996.81;5110508;28;20198;-78
2022/12/05 00:29:33;;;;;;;29.43;17.93;;;;;;;2.84;100.00;99007.03;5114752;28;20183;-79
2022/12/05 00:32:01;;;;;;;28.97;17.53;;;;;;;2.79;100.00;99001.09;5107026;28;20219;-79
2022/12/05 00:34:30;;;;;;;29.47;17.33;;;;;;;2.88;100.00;98998.16;5112286;28;20244;-79
2022/12/05 00:36:58;;;;;;;25.77;16.70;;;;;;;2.84;100.00;99001.78;5110415;28;20194;-79
2022/12/05 00:39:28;;;;;;;30.07;17.47;;;;;;;2.88;100.00;99000.75;5109359;28;20190;-79
2022/12/05 00:41:57;;;;;;;31.77;18.03;;;;;;;2.88;100.00;98995.53;5112162;28;20199;-79
2022/12/05 00:44:25;;;;;;;27.53;16.50;;;;;;;2.88;100.00;98998.16;5110419;28;20203;-79
2022/12/05 00:46:54;;;;;;;30.80;16.30;;;;;;;2.84;100.00;99006.16;5106627;28;20195;-79
2022/12/05 00:49:22;;;;;;;29.13;16.40;;;;;;;2.88;100.00;99000.75;5107268;28;20244;-79
2022/12/05 00:51:52;;;;;;;30.10;17.33;;;;;;;2.85;100.00;99002.66;5112162;28;20284;-79
2022/12/05 00:54:21;;;;;;;26.60;15.93;;;;;;;2.91;100.00;99002.44;5106120;28;20255;-79
2022/12/05 00:56:51;;;;;;;28.73;16.20;;;;;;;2.93;100.00;99010.22;5114195;28;20214;-79
2022/12/05 00:59:21;;;;;;;25.47;15.57;;;;;;;2.93;100.00;99005.00;5112104;28;20244;-79
2022/12/05 01:01:51;;;;;;;25.87;15.87;;;;;;;3.03;100.00;99009.84;5113543;28;20197;-78
2022/12/05 01:04:23;;;;;;;26.20;15.40;;;;;;;3.05;100.00;99015.00;5116543;27;20207;-79
2022/12/05 01:06:55;;;;;;;25.87;16.00;;;;;;;2.97;100.00;99015.28;5114997;28;20219;-79
2022/12/05 01:09:25;;;;;;;26.97;15.90;;;;;;;2.86;100.00;99018.28;5115071;28;20199;-79
2022/12/05 01:11:53;;;;;;;29.80;16.60;;;;;;;2.93;100.00;99024.16;5115920;27;20226;-79
2022/12/05 01:14:25;;;;;;;25.10;15.20;;;;;;;2.95;100.00;99029.31;5073614;28;20238;-79
2022/12/05 01:16:56;;;;;;;27.83;15.97;;;;;;;2.99;100.00;99029.19;5115960;28;20194;-79
2022/12/05 01:19:31;;;;;;;25.33;15.87;;;;;;;2.94;100.00;99036.31;5118686;27;20400;-79
2022/12/05 01:22:00;;;;;;;24.17;15.27;;;;;;;3.03;100.00;99041.22;5070410;28;20199;-79
2022/12/05 01:24:29;;;;;;;25.30;15.17;;;;;;;3.05;100.00;99047.25;5067846;28;20269;-79
2022/12/05 01:26:57;;;;;;;23.43;14.87;;;;;;;3.14;100.00;99053.94;5073175;28;20267;-79
2022/12/05 01:29:28;;;;;;;27.93;15.50;;;;;;;3.03;100.00;99049.09;5069803;28;20290;-79
2022/12/05 01:31:57;;;;;;;23.50;14.73;;;;;;;2.98;100.00;99044.91;5073015;28;20199;-79
2022/12/05 01:34:25;;;;;;;24.27;14.63;;;;;;;2.93;100.00;99039.84;5068253;28;20530;-79
2022/12/05 01:36:54;;;;;;;24.40;14.53;;;;;;;2.95;100.00;99043.25;5071230;28;20671;-79
2022/12/05 01:39:23;;;;;;;22.63;14.30;;;;;;;2.99;100.00;99049.22;5067294;28;20274;-79
2022/12/05 01:41:52;;;;;;;23.53;14.70;;;;;;;2.90;100.00;99053.03;5064559;28;20211;-79
2022/12/05 01:44:57;;;;;;;22.83;13.83;;;;;;;2.93;100.00;99057.31;5072793;28;20192;-79
2022/12/05 01:47:30;;;;;;;22.70;13.63;;;;;;;3.02;100.00;99049.16;5072773;28;20188;-78
2022/12/05 01:50:00;;;;;;;22.07;13.60;;;;;;;2.93;100.00;99049.47;5072524;28;20204;-79
2022/12/05 01:52:31;;;;;;;20.90;13.23;;;;;;;2.95;100.00;99050.25;5082746;28;20222;-78
2022/12/05 01:55:06;;;;;;;23.10;14.17;;;;;;;2.97;100.00;99046.66;5111184;28;20677;-78
2022/12/05 01:57:34;;;;;;;21.10;14.30;;;;;;;2.85;100.00;99045.34;5114729;27;20236;-78
2022/12/05 02:00:10;;;;;;;21.73;13.47;;;;;;;2.82;100.00;99047.22;5112671;28;20206;-78
2022/12/05 02:02:42;;;;;;;21.13;13.80;;;;;;;2.71;100.00;99050.22;5112343;28;20269;-78
2022/12/05 02:05:17;;;;;;;20.40;13.10;;;;;;;2.66;100.00;99049.50;5113390;28;20187;-78
2022/12/05 02:07:47;;;;;;;19.90;13.37;;;;;;;2.67;100.00;99055.56;5114530;28;20255;-78
2022/12/05 02:10:16;;;;;;;20.40;12.67;;;;;;;2.63;100.00;99054.84;5111081;28;20254;-78
2022/12/05 02:12:45;;;;;;;21.23;13.17;;;;;;;2.69;100.00;99053.75;5114849;28;20222;-78
2022/12/05 02:15:37;;;;;;;22.73;13.30;;;;;;;2.63;100.00;99052.22;5112764;28;20190;-77
2022/12/05 02:18:22;;;;;;;19.63;12.63;;;;;;;2.65;100.00;99057.38;5114506;28;20224;-78
2022/12/05 02:21:10;;;;;;;20.17;12.63;;;;;;;2.57;100.00;99055.03;5114006;28;20199;-77
2022/12/05 02:24:09;;;;;;;20.33;13.23;;;;;;;2.54;100.00;99057.75;5114396;28;20191;-77
2022/12/05 02:26:53;;;;;;;18.33;12.27;;;;;;;2.58;100.00;99052.34;5100851;28;20215;-77
2022/12/05 02:29:59;;;;;;;20.30;13.53;;;;;;;2.52;100.00;99062.19;5116984;27;20195;-77
2022/12/05 02:32:51;;;;;;;22.10;13.57;;;;;;;2.56;100.00;99066.41;5114395;28;20194;-77
2022/12/05 02:35:35;;;;;;;24.37;13.13;;;;;;;2.49;100.00;99057.03;5111314;28;20199;-77
2022/12/05 02:38:18;;;;;;;26.53;13.93;;;;;;;2.47;100.00;99058.84;5113997;28;20236;-78
2022/12/05 02:40:55;;;;;;;25.23;14.20;;;;;;;2.47;100.00;99064.06;5112826;28;20198;-78
2022/12/05 02:43:30;;;;;;;23.60;12.97;;;;;;;2.42;100.00;99060.78;5114149;28;20248;-78
2022/12/05 02:46:05;;;;;;;22.17;13.20;;;;;;;2.42;100.00;99058.16;5112975;28;20252;-78
2022/12/05 02:48:35;;;;;;;20.53;12.57;;;;;;;2.33;100.00;99067.16;5113966;28;20274;-78
2022/12/05 02:51:06;;;;;;;21.13;13.13;;;;;;;2.34;100.00;99061.03;5091985;28;20237;-78
2022/12/05 02:53:40;;;;;;;22.70;13.67;;;;;;;2.38;100.00;99060.00;5112256;28;20394;-77
2022/12/05 02:56:09;;;;;;;22.20;13.67;;;;;;;2.23;100.00;99055.28;5069668;28;20196;-78
2022/12/05 02:58:44;;;;;;;23.83;14.07;;;;;;;2.32;100.00;99057.59;5064477;28;20231;-78
2022/12/05 03:01:15;;;;;;;21.77;13.50;;;;;;;2.31;100.00;99048.03;5037904;28;20203;-77
2022/12/05 03:03:43;;;;;;;21.93;14.13;;;;;;;2.26;100.00;99048.19;5070860;28;20201;-78
2022/12/05 03:06:14;;;;;;;23.23;14.53;;;;;;;2.27;100.00;99055.13;5064392;28;20229;-78
2022/12/05 03:08:47;;;;;;;25.43;14.67;;;;;;;2.40;100.00;99049.50;5062927;28;20250;-78
2022/12/05 03:11:16;;;;;;;20.90;13.83;;;;;;;2.37;100.00;99049.59;5069860;28;20193;-77
2022/12/05 03:13:49;;;;;;;25.10;14.57;;;;;;;2.30;100.00;99047.19;5083634;28;20729;-78
2022/12/05 03:16:24;;;;;;;23.07;14.20;;;;;;;2.36;100.00;99048.75;5113238;28;20240;-78
2022/12/05 03:18:57;;;;;;;21.97;12.90;;;;;;;2.32;100.00;99038.44;5110320;28;20194;-78
2022/12/05 03:21:31;;;;;;;22.93;13.33;;;;;;;2.28;100.00;99046.38;5113620;28;20194;-78
2022/12/05 03:24:05;;;;;;;27.37;13.53;;;;;;;2.26;100.00;99048.19;5110433;28;20191;-78
2022/12/05 03:26:46;;;;;;;24.27;13.53;;;;;;;2.33;100.00;99043.63;5114527;27;20191;-78
2022/12/05 03:29:27;;;;;;;22.53;14.30;;;;;;;2.31;100.00;99050.66;5114708;27;20272;-78
2022/12/05 03:32:06;;;;;;;24.93;13.80;;;;;;;2.32;100.00;99048.88;5078507;28;20264;-78
2022/12/05 03:34:51;;;;;;;22.83;13.83;;;;;;;2.28;100.00;99049.00;5076230;28;20673;-78
2022/12/05 03:37:27;;;;;;;22.33;13.43;;;;;;;2.27;100.00;99051.66;5116253;27;20271;-78
2022/12/05 03:40:09;;;;;;;23.13;14.23;;;;;;;2.34;100.00;99061.03;5110232;28;20195;-78
2022/12/05 03:42:45;;;;;;;21.10;13.70;;;;;;;2.34;100.00;99053.19;5113973;27;20194;-78
2022/12/05 03:45:20;;;;;;;20.67;13.33;;;;;;;2.32;100.00;99055.00;5113396;28;20272;-78
2022/12/05 03:47:57;;;;;;;23.33;13.53;;;;;;;2.34;100.00;99057.56;5111513;28;20194;-78
2022/12/05 03:50:28;;;;;;;21.27;13.30;;;;;;;2.35;100.00;99057.50;5109192;28;20195;-78
2022/12/05 03:53:02;;;;;;;23.90;13.53;;;;;;;2.28;100.00;99056.84;5110841;28;20224;-78
2022/12/05 03:55:55;;;;;;;23.17;13.87;;;;;;;2.36;100.00;99055.75;5112320;28;20198;-78
2022/12/05 03:58:31;;;;;;;25.43;13.70;;;;;;;2.36;100.00;99061.81;5113483;28;20274;-78
2022/12/05 04:01:01;;;;;;;22.47;13.10;;;;;;;2.39;100.00;99058.25;5113797;27;20187;-78
2022/12/05 04:03:39;;;;;;;22.10;13.40;;;;;;;2.36;100.00;99059.22;5113179;28;20198;-79
2022/12/05 04:06:14;;;;;;;23.37;13.33;;;;;;;2.35;100.00;99056.66;5112860;28;20211;-78
2022/12/05 04:08:49;;;;;;;20.57;13.07;;;;;;;2.29;100.00;99070.75;5116998;28;20216;-78
2022/12/05 04:11:23;;;;;;;21.97;12.70;;;;;;;2.35;100.00;99069.72;5115777;27;20254;-79
2022/12/05 04:13:54;;;;;;;19.60;12.10;;;;;;;2.36;100.00;99066.19;5115583;27;20219;-79
2022/12/05 04:19:18;;;;;;;18.87;12.27;;;;;;;2.35;100.00;99069.72;5112717;28;20211;-78
2022/12/05 04:21:49;;;;;;;20.60;12.57;;;;;;;2.35;100.00;99080.16;5111412;28;20194;-78
2022/12/05 04:27:21;;;;;;;25.33;12.83;;;;;;;2.35;100.00;99085.41;5113137;28;20183;-78
2022/12/05 04:29:57;;;;;;;22.40;13.27;;;;;;;2.29;100.00;99089.91;5115760;27;20244;-79
2022/12/05 04:32:33;;;;;;;23.30;14.03;;;;;;;2.27;100.00;99099.56;5117669;27;20251;-78
2022/12/05 04:35:09;;;;;;;22.33;13.07;;;;;;;2.07;100.00;99101.06;5117494;28;20226;-79
2022/12/05 04:37:43;;;;;;;23.07;12.23;;;;;;;2.18;100.00;99112.03;5117305;28;20194;-79
2022/12/05 04:40:18;;;;;;;20.60;12.90;;;;;;;2.23;100.00;99110.16;5115070;28;20190;-79
2022/12/05 04:42:49;;;;;;;22.57;13.37;;;;;;;2.06;100.00;99125.50;5114386;28;20206;-79
2022/12/05 04:45:21;;;;;;;21.67;13.90;;;;;;;2.11;100.00;99121.81;5116954;28;20191;-78
2022/12/05 04:47:53;;;;;;;21.27;13.00;;;;;;;2.15;100.00;99128.69;5116066;28;20239;-78
2022/12/05 04:50:28;;;;;;;21.20;13.50;;;;;;;2.06;100.00;99125.50;5108234;28;20240;-79
2022/12/05 04:53:00;;;;;;;25.10;13.97;;;;;;;2.07;100.00;99130.66;5113590;28;20213;-78
2022/12/05 04:55:32;;;;;;;24.70;14.23;;;;;;;2.12;100.00;99131.34;5115723;28;20215;-78
2022/12/05 04:58:07;;;;;;;23.47;14.30;;;;;;;2.17;100.00;99129.47;5115386;28;20197;-79
2022/12/05 05:00:47;;;;;;;24.93;14.13;;;;;;;2.19;100.00;99127.66;5112619;28;20201;-79
2022/12/05 05:03:22;;;;;;;25.27;14.27;;;;;;;2.12;100.00;99123.53;5116055;27;20653;-79
2022/12/05 05:05:58;;;;;;;22.63;13.40;;;;;;;2.19;100.00;99124.19;5112167;28;20190;-78
2022/12/05 05:08:28;;;;;;;21.90;13.17;;;;;;;2.26;100.00;99129.19;5115045;28;20191;-78
2022/12/05 05:11:09;;;;;;;24.37;13.67;;;;;;;2.36;100.00;99127.16;5112754;28;20215;-78
2022/12/05 05:13:37;;;;;;;26.30;12.93;;;;;;;2.39;100.00;99131.41;5114872;28;20594;-79
2022/12/05 05:16:07;;;;;;;23.83;12.70;;;;;;;2.38;100.00;99132.31;5113877;28;20263;-79
2022/12/05 05:18:37;;;;;;;21.67;13.40;;;;;;;2.41;100.00;99135.69;5081217;28;20646;-78
2022/12/05 05:21:15;;;;;;;19.53;12.80;;;;;;;2.43;100.00;99125.22;5116264;27;20208;-78
2022/12/05 05:23:43;;;;;;;19.63;12.23;;;;;;;2.41;100.00;99129.59;5110840;28;20218;-78
2022/12/05 05:26:14;;;;;;;21.40;13.03;;;;;;;2.45;100.00;99139.09;5030271;28;20225;-78
2022/12/05 05:28:42;;;;;;;20.03;12.40;;;;;;;2.38;100.00;99143.63;5031184;28;20232;-78
2022/12/05 05:31:11;;;;;;;20.33;12.73;;;;;;;2.20;100.00;99152.03;5033576;28;20201;-79
2022/12/05 05:33:40;;;;;;;21.53;13.23;;;;;;;2.04;100.00;99148.19;5029129;28;20737;-79
2022/12/05 05:36:13;;;;;;;17.87;13.10;;;;;;;2.22;100.00;99150.22;5030243;28;20221;-79
2022/12/05 05:38:44;;;;;;;23.10;12.43;;;;;;;2.20;100.00;99146.81;5033372;28;20193;-78
2022/12/05 05:41:14;;;;;;;20.83;12.13;;;;;;;2.31;100.00;99149.94;5031199;28;20225;-78
2022/12/05 05:43:42;;;;;;;22.80;13.63;;;;;;;2.33;100.00;99148.16;5050808;28;20191;-78
2022/12/05 05:46:12;;;;;;;22.17;13.33;;;;;;;2.21;100.00;99149.38;5114795;28;20248;-79
2022/12/05 05:48:41;;;;;;;25.17;13.50;;;;;;;1.95;100.00;99155.41;5110467;28;20201;-79
2022/12/05 05:51:13;;;;;;;19.53;12.37;;;;;;;1.92;100.00;99152.84;5113858;28;20187;-79
2022/12/05 05:53:42;;;;;;;22.43;13.30;;;;;;;1.91;100.00;99156.38;5116227;28;20213;-79
2022/12/05 05:56:12;;;;;;;25.77;14.17;;;;;;;2.10;100.00;99151.44;5077592;28;20210;-79
2022/12/05 05:58:48;;;;;;;21.70;13.53;;;;;;;2.08;100.00;99155.88;5116956;27;20275;-79
2022/12/05 06:01:20;;;;;;;27.80;14.63;;;;;;;2.45;100.00;99160.84;5114741;27;20183;-79
2022/12/05 06:03:49;;;;;;;26.13;14.17;;;;;;;2.39;100.00;99157.56;5109377;28;20257;-79
2022/12/05 06:06:21;;;;;;;24.03;14.17;;;;;;;2.35;100.00;99155.94;5115461;28;20333;-79
2022/12/05 06:08:50;;;;;;;24.97;14.00;;;;;;;2.47;100.00;99164.25;5115293;28;20248;-79
2022/12/05 06:11:21;;;;;;;25.37;13.97;;;;;;;2.47;100.00;99156.41;5079873;28;20194;-79
2022/12/05 06:13:55;;;;;;;24.10;13.27;;;;;;;2.41;100.00;99155.75;5117864;27;20195;-79
2022/12/05 06:16:23;;;;;;;26.83;13.50;;;;;;;2.29;100.00;99152.59;5113426;28;20283;-78
2022/12/05 06:18:52;;;;;;;29.23;13.67;;;;;;;2.13;100.00;99155.75;5115417;28;20195;-79
2022/12/05 06:21:23;;;;;;;24.27;14.87;;;;;;;2.07;100.00;99156.78;5075077;28;20198;-79
2022/12/05 06:23:53;;;;;;;33.03;15.27;;;;;;;1.88;100.00;99161.69;5113275;28;20207;-79
2022/12/05 06:26:22;;;;;;;28.73;15.27;;;;;;;1.95;100.00;99172.81;5117903;27;20203;-79
2022/12/05 06:28:51;;;;;;;31.37;15.90;;;;;;;2.12;100.00;99174.91;5115369;28;20221;-79
2022/12/05 06:31:22;;;;;;;27.63;15.23;;;;;;;2.09;100.00;99173.25;5079892;28;20198;-78
2022/12/05 06:33:51;;;;;;;30.50;16.20;;;;;;;2.08;100.00;99178.53;5116137;28;20190;-79
2022/12/05 06:36:21;;;;;;;27.23;14.70;;;;;;;2.17;100.00;99183.50;5114937;28;20218;-79
2022/12/05 06:38:51;;;;;;;33.27;15.73;;;;;;;2.00;100.00;99190.06;5113420;28;20206;-79
2022/12/05 06:41:23;;;;;;;41.00;15.43;;;;;;;2.12;100.00;99190.59;5117108;27;20195;-79
2022/12/05 06:43:53;;;;;;;29.40;15.73;;;;;;;2.19;100.00;99187.75;5113568;28;20225;-79
2022/12/05 06:46:29;;;;;;;30.60;15.77;;;;;;;2.23;100.00;99194.63;5113165;28;20210;-79
2022/12/05 06:49:00;;;;;;;33.40;16.47;;;;;;;2.34;100.00;99196.06;5112640;28;20195;-80
2022/12/05 06:51:29;;;;;;;29.77;16.70;;;;;;;2.31;100.00;99204.81;5115963;27;20290;-79
2022/12/05 06:53:59;;;;;;;29.10;15.77;;;;;;;2.22;100.00;99200.75;5108447;28;20202;-79
2022/12/05 06:56:28;;;;;;;31.07;16.73;;;;;;;1.98;100.00;99214.50;5115190;28;20681;-79
2022/12/05 06:58:56;;;;;;;33.93;16.43;;;;;;;1.98;100.00;99217.13;5110742;28;20199;-79
2022/12/05 07:01:40;;;;;;;37.83;16.70;;;;;;;2.16;100.00;99219.22;5112566;28;20198;-79
2022/12/05 07:04:14;;;;;;;33.27;16.63;;;;;;;2.27;100.00;99217.13;5114140;28;20222;-79
2022/12/05 07:06:44;;;;;;;37.27;16.83;;;;;;;2.34;100.00;99216.97;5114299;28;20226;-79
2022/12/05 07:09:20;;;;;;;31.63;15.47;;;;;;;2.42;100.00;99226.28;5113303;28;20218;-79
2022/12/05 07:11:51;;;;;;;31.00;16.33;;;;;;;2.40;100.00;99225.47;5114424;28;20182;-79
2022/12/05 07:14:19;;;;;;;33.37;16.40;;;;;;;2.44;100.00;99231.47;5114099;28;20191;-79
2022/12/05 07:17:07;;;;;;;30.00;16.17;;;;;;;2.38;100.00;99224.66;5114201;28;20291;-79
2022/12/05 07:19:36;;;;;;;33.37;16.17;;;;;;;2.39;100.00;99230.72;5114215;28;20203;-79
2022/12/05 07:22:04;;;;;;;33.97;17.07;;;;;;;2.39;100.00;99235.97;5114035;27;20218;-79
2022/12/05 07:24:42;;;;;;;28.77;15.17;;;;;;;2.49;100.00;99245.25;5112210;28;20209;-79
2022/12/05 07:27:10;;;;;;;32.13;15.57;;;;;;;2.45;100.00;99241.03;5114123;28;20711;-79
2022/12/05 07:29:41;;;;;;;32.00;16.43;;;;;;;2.47;100.00;99244.44;5114055;28;20190;-79
2022/12/05 07:32:09;;;;;;;29.63;15.67;;;;;;;2.53;100.00;99239.88;5104302;28;20206;-79
2022/12/05 07:34:39;;;;;;;33.00;17.23;;;;;;;2.47;100.00;99241.81;5114026;27;20206;-79
2022/12/05 07:37:07;;;;;;;31.70;17.13;;;;;;;2.42;100.00;99241.97;5113917;28;20272;-79
2022/12/05 07:39:36;;;;;;;29.77;16.73;;;;;;;2.52;100.00;99240.78;5109771;28;20202;-80
2022/12/05 07:42:06;;;;;;;35.20;17.20;;;;;;;2.13;100.00;99240.22;5116279;27;20207;-79
2022/12/05 07:44:35;;;;;;;33.30;17.07;;;;;;;2.23;100.00;99241.66;5117234;28;20199;-79
2022/12/05 07:47:03;;;;;;;35.13;17.40;;;;;;;2.38;100.00;99252.53;5114720;28;20220;-79
2022/12/05 07:49:32;;;;;;;31.30;16.47;;;;;;;2.45;100.00;99249.72;5038086;28;20273;-79
2022/12/05 07:52:01;;;;;;;32.97;15.90;;;;;;;2.48;100.00;99251.38;5091265;28;20196;-80
2022/12/05 07:54:30;;;;;;;28.13;14.70;;;;;;;2.55;100.00;99263.38;5086816;28;20678;-80
2022/12/05 07:56:59;;;;;;;29.50;16.30;;;;;;;2.57;100.00;99256.31;5091035;28;20265;-79
2022/12/05 07:59:29;;;;;;;28.57;15.13;;;;;;;2.57;100.00;99254.56;5087667;28;20241;-80
2022/12/05 08:01:57;;;;;;;25.83;15.07;;;;;;;2.67;100.00;99259.53;5088456;28;20245;-79
2022/12/05 08:04:26;;;;;;;23.50;13.70;;;;;;;2.69;100.00;99258.56;5086015;28;20191;-80
2022/12/05 08:06:55;;;;;;;25.17;14.70;;;;;;;2.66;100.00;99258.66;5085721;28;20227;-79
2022/12/05 08:09:23;;;;;;;25.40;14.33;;;;;;;2.67;100.00;99265.59;5087037;28;20188;-79
2022/12/05 08:11:51;;;;;;;27.13;15.17;;;;;;;2.54;100.00;99266.88;5088354;28;20280;-79
2022/12/05 08:14:20;;;;;;;26.20;14.63;;;;;;;2.61;100.00;99267.56;5090856;28;20199;-79
2022/12/05 08:16:50;;;;;;;24.80;14.90;;;;;;;2.39;100.00;99264.72;5088064;28;20211;-80
2022/12/05 08:19:19;;;;;;;27.43;14.80;;;;;;;2.57;100.00;99269.41;5085452;28;20210;-79
2022/12/05 08:21:51;;;;;;;32.67;16.73;;;;;;;2.50;100.00;99266.09;5108333;28;20575;-79
2022/12/05 08:24:19;;;;;;;30.10;16.83;;;;;;;2.31;100.00;99267.53;5066745;28;20216;-79
2022/12/05 08:26:47;;;;;;;24.83;14.03;;;;;;;2.35;100.00;99268.31;5067189;28;20196;-79
2022/12/05 08:29:20;;;;;;;27.03;14.80;;;;;;;2.40;100.00;99276.88;5067221;28;20246;-79
2022/12/05 08:31:51;;;;;;;28.10;14.90;;;;;;;2.57;100.00;99279.84;5070481;28;20196;-79
2022/12/05 08:34:21;;;;;;;26.00;15.47;;;;;;;2.78;100.00;99284.44;5068126;28;20291;-79
2022/12/05 08:36:52;;;;;;;30.20;16.10;;;;;;;2.83;100.00;99293.00;5068096;28;20235;-79
2022/12/05 08:39:20;;;;;;;30.43;15.97;;;;;;;2.85;100.00;99288.59;5068949;28;20308;-79
2022/12/05 08:41:49;;;;;;;29.63;16.53;;;;;;;2.89;100.00;99286.72;5064135;28;20222;-78
2022/12/05 08:44:18;;;;;;;28.27;15.97;;;;;;;2.95;100.00;99301.38;5070555;28;20227;-80
2022/12/05 08:46:50;;;;;;;32.47;17.37;;;;;;;2.88;100.00;99298.94;5021508;28;20242;-79
2022/12/05 08:49:18;;;;;;;34.43;18.33;;;;;;;2.81;100.00;99307.91;5065340;28;20204;-79
2022/12/05 08:51:47;;;;;;;34.00;18.37;;;;;;;2.89;100.00;99318.09;5066062;28;20709;-79
2022/12/05 08:54:16;;;;;;;43.13;20.83;;;;;;;2.88;100.00;99314.63;5065818;28;20242;-79
2022/12/05 08:56:44;;;;;;;37.53;18.97;;;;;;;2.93;100.00;99311.91;5112471;28;20211;-79
2022/12/05 08:59:14;;;;;;;36.77;17.33;;;;;;;2.90;100.00;99319.84;5112679;28;20195;-79
2022/12/05 09:01:42;;;;;;;33.80;17.67;;;;;;;3.00;100.00;99318.66;5110006;28;20228;-78
2022/12/05 09:04:12;;;;;;;33.57;17.53;;;;;;;2.87;100.00;99315.53;5107771;28;20714;-80
2022/12/05 09:06:41;;;;;;;32.73;17.50;;;;;;;3.06;100.00;99305.38;5110365;28;20256;-79
2022/12/05 09:09:11;;;;;;;38.80;18.73;;;;;;;2.89;100.00;99305.03;5111622;28;20703;-79
2022/12/05 09:11:47;;;;;;;30.00;16.80;;;;;;;3.00;100.00;99308.19;5113038;27;20196;-79
2022/12/05 09:14:15;;;;;;;28.07;16.23;;;;;;;3.05;100.00;99313.28;5112351;28;20220;-79
2022/12/05 09:16:46;;;;;;;33.53;18.03;;;;;;;3.01;100.00;99316.91;5114126;28;20215;-79
2022/12/05 09:19:19;;;;;;;37.60;17.53;;;;;;;2.94;100.00;99312.75;5107462;28;20199;-79
2022/12/05 09:21:47;;;;;;;39.10;18.40;;;;;;;2.90;100.00;99325.09;5115160;28;20206;-79
2022/12/05 09:24:16;;;;;;;38.77;18.90;;;;;;;2.95;100.00;99328.41;5115364;28;20199;-79
2022/12/05 09:26:45;;;;;;;35.03;17.83;;;;;;;3.11;100.00;99332.25;5116242;28;20236;-79
2022/12/05 09:29:15;;;;;;;33.90;18.00;;;;;;;3.06;100.00;99322.84;5112976;28;20251;-79
2022/12/05 09:31:47;;;;;;;32.47;17.20;;;;;;;3.15;100.00;99330.41;5114753;28;20194;-79
2022/12/05 09:34:18;;;;;;;38.90;19.07;;;;;;;2.90;100.00;99327.69;5118619;27;20252;-79
2022/12/05 09:36:50;;;;;;;39.87;20.40;;;;;;;2.82;100.00;99327.06;5114857;28;20457;-79
2022/12/05 09:39:37;;;;;;;37.67;20.07;;;;;;;2.90;100.00;99337.31;5115122;28;20194;-79
2022/12/05 09:42:24;;;;;;;43.43;22.20;;;;;;;3.05;100.00;99331.59;5116004;28;20195;-78
2022/12/05 09:45:04;;;;;;;42.13;22.67;;;;;;;3.03;100.00;99331.63;5115909;28;20191;-79
2022/12/05 09:47:41;;;;;;;42.53;21.77;;;;;;;3.10;100.00;99341.03;5115995;28;20202;-80
2022/12/05 09:50:20;;;;;;;40.03;20.33;;;;;;;3.17;100.00;99341.66;5113449;28;20190;-79
2022/12/05 09:53:05;;;;;;;45.40;22.63;;;;;;;3.01;100.00;99336.06;5116030;28;20217;-79
2022/12/05 09:55:44;;;;;;;42.23;19.77;;;;;;;3.11;100.00;99334.88;5112659;28;20191;-79
2022/12/05 09:58:20;;;;;;;40.90;19.57;;;;;;;3.14;100.00;99339.16;5115947;28;20215;-79
2022/12/05 10:00:53;;;;;;;42.33;20.60;;;;;;;3.21;100.00;99338.06;5114338;28;20205;-79
2022/12/05 10:03:29;;;;;;;42.77;20.03;;;;;;;3.32;100.00;99333.34;5115712;28;20195;-79
2022/12/05 10:06:12;;;;;;;47.47;21.53;;;;;;;3.12;100.00;99331.34;5114254;28;20283;-79
2022/12/05 10:09:05;;;;;;;45.10;22.87;;;;;;;2.87;100.00;99330.38;5117977;27;20350;-79
2022/12/05 10:11:41;;;;;;;46.23;21.53;;;;;;;2.88;100.00;99327.72;5114282;28;20190;-79
2022/12/05 10:14:21;;;;;;;47.17;23.50;;;;;;;2.97;100.00;99325.72;5115424;28;20183;-79
2022/12/05 10:16:55;;;;;;;44.30;21.67;;;;;;;2.90;100.00;99326.84;5115491;28;20261;-79
2022/12/05 10:19:29;;;;;;;45.97;21.33;;;;;;;3.14;100.00;99329.53;5116475;27;20188;-79
2022/12/05 10:22:05;;;;;;;42.07;21.10;;;;;;;3.29;100.00;99336.06;5114897;27;20203;-79
2022/12/05 10:24:38;;;;;;;46.97;21.87;;;;;;;3.19;100.00;99332.03;5114163;27;20198;-79
2022/12/05 10:27:15;;;;;;;41.33;20.47;;;;;;;3.22;100.00;99329.31;5110157;28;20252;-79
2022/12/05 10:29:49;;;;;;;40.70;20.97;;;;;;;3.35;100.00;99338.47;5114270;28;20191;-79
2022/12/05 10:32:23;;;;;;;50.03;22.27;;;;;;;3.27;100.00;99330.00;5115557;28;20187;-79
2022/12/05 10:34:55;;;;;;;41.73;20.87;;;;;;;3.21;100.00;99332.84;5115207;28;20198;-79
2022/12/05 10:37:29;;;;;;;41.77;21.33;;;;;;;3.37;100.00;99331.41;5117886;27;20219;-78
2022/12/05 10:39:58;;;;;;;42.07;21.00;;;;;;;3.07;100.00;99341.09;5114272;28;20187;-79
2022/12/05 10:42:30;;;;;;;44.30;23.17;;;;;;;3.22;100.00;99331.06;5115146;28;20192;-79
2022/12/05 10:45:04;;;;;;;51.70;28.10;;;;;;;3.42;100.00;99334.75;5115019;28;20199;-79
2022/12/05 10:47:33;;;;;;;42.67;23.40;;;;;;;3.12;100.00;99333.97;5114861;28;20195;-79
2022/12/05 10:50:05;;;;;;;44.20;22.40;;;;;;;3.16;100.00;99324.25;5114819;28;20194;-79
2022/12/05 10:52:36;;;;;;;41.30;22.70;;;;;;;3.39;100.00;99332.25;5113467;27;20226;-79
2022/12/05 10:55:08;;;;;;;44.93;23.43;;;;;;;3.36;100.00;99331.47;5112456;28;20218;-79
2022/12/05 10:57:36;;;;;;;34.93;18.83;;;;;;;3.23;100.00;99336.25;5114046;28;20261;-80
2022/12/05 11:00:12;;;;;;;33.43;18.00;;;;;;;3.34;100.00;99328.06;5114646;28;20188;-79
2022/12/05 11:02:42;;;;;;;34.93;18.70;;;;;;;3.48;100.00;99327.63;5115004;28;20183;-79
2022/12/05 11:05:27;;;;;;;36.73;18.40;;;;;;;3.57;100.00;99332.53;5114701;28;20191;-80
2022/12/05 11:08:00;;;;;;;35.00;19.10;;;;;;;3.38;100.00;99332.31;5112821;28;20233;-79
2022/12/05 11:10:34;;;;;;;35.97;18.20;;;;;;;3.30;100.00;99336.94;5107579;28;20195;-79
2022/12/05 11:13:15;;;;;;;34.53;18.27;;;;;;;3.56;100.00;99329.06;5112475;28;20189;-79
2022/12/05 11:15:46;;;;;;;32.77;18.33;;;;;;;3.27;100.00;99330.00;5112694;28;20235;-78
2022/12/05 11:18:28;;;;;;;38.27;19.63;;;;;;;3.37;100.00;99327.94;5114255;28;20302;-78
2022/12/05 11:21:08;;;;;;;32.87;18.57;;;;;;;3.57;100.00;99333.44;5117226;27;20214;-79
2022/12/05 11:23:38;;;;;;;32.27;17.50;;;;;;;3.69;100.00;99332.16;5119002;28;20187;-78
2022/12/05 11:26:18;;;;;;;36.50;18.77;;;;;;;3.79;100.00;99324.84;5113908;28;20194;-78
2022/12/05 11:28:49;;;;;;;33.77;18.37;;;;;;;3.74;100.00;99332.84;5113901;28;20195;-78
2022/12/05 11:31:25;;;;;;;30.30;17.90;;;;;;;3.81;100.00;99321.25;5114665;28;20187;-79
2022/12/05 11:34:15;;;;;;;31.23;17.27;;;;;;;3.99;100.00;99315.38;5115462;28;20281;-79
2022/12/05 11:36:48;;;;;;;32.50;18.50;;;;;;;3.98;100.00;99307.59;5108680;28;20199;-79
2022/12/05 11:39:18;;;;;;;34.10;18.43;;;;;;;3.93;100.00;99315.59;5110379;28;20240;-78
2022/12/05 11:42:15;;;;;;;35.33;18.27;;;;;;;3.74;100.00;99304.03;5109480;28;20195;-78
2022/12/05 11:45:17;;;;;;;34.70;18.40;;;;;;;3.87;100.00;99307.09;5102773;28;20199;-79
2022/12/05 11:48:24;;;;;;;27.10;17.40;;;;;;;3.81;100.00;99304.69;5112110;28;20194;-79
2022/12/05 11:51:09;;;;;;;27.63;16.93;;;;;;;3.69;100.00;99293.72;5108884;28;20187;-78